createdAt,value
2022-09-05T00:00:56.182Z,76.07
2022-09-05T00:01:56.160Z,75.61
2022-09-05T00:02:56.255Z,75.75
2022-09-05T00:03:56.221Z,75.82
2022-09-05T00:04:56.057Z,76.04
2022-09-05T00:06:02.929Z,76.25
2022-09-05T00:06:57.008Z,76.24
2022-09-05T00:07:58.898Z,76.26
2022-09-05T00:08:55.959Z,76.36
2022-09-05T00:09:55.938Z,76.38
2022-09-05T00:11:39.344Z,76.07
2022-09-05T00:11:56.898Z,76.01
2022-09-05T00:13:07.383Z,75.63
2022-09-05T00:13:56.847Z,75.88
2022-09-05T00:15:17.254Z,76.02
2022-09-05T00:15:56.832Z,75.80
2022-09-05T00:16:55.768Z,75.69
2022-09-05T00:20:21.941Z,75.37
2022-09-05T00:23:58.756Z,75.33
2022-09-05T00:24:17.673Z,75.31
2022-09-05T00:24:19.902Z,75.18
2022-09-05T00:24:27.281Z,75.54
2022-09-05T00:24:28.564Z,76.01
2022-09-05T00:24:32.508Z,75.43
2022-09-05T00:25:14.319Z,75.25
2022-09-05T00:25:56.515Z,75.09
2022-09-05T00:26:55.491Z,74.50
2022-09-05T00:27:55.476Z,74.56
2022-09-05T00:28:55.424Z,75.73
2022-09-05T00:31:07.969Z,75.31
2022-09-05T00:31:51.893Z,75.52
2022-09-05T00:31:57.483Z,75.75
2022-09-05T00:32:55.420Z,75.77
2022-09-05T00:33:55.295Z,75.72
2022-09-05T00:34:55.282Z,75.71
2022-09-05T00:35:55.234Z,75.77
2022-09-05T00:36:55.224Z,75.89
2022-09-05T00:37:55.204Z,75.97
2022-09-05T00:38:55.176Z,76.01
2022-09-05T00:40:00.830Z,75.83
2022-09-05T00:40:56.123Z,75.98
2022-09-05T00:41:55.112Z,76.02
2022-09-05T00:42:55.121Z,76.04
2022-09-05T00:43:55.074Z,75.92
2022-09-05T00:44:55.052Z,75.40
2022-09-05T00:45:55.042Z,75.15
2022-09-05T00:46:55.151Z,74.63
2022-09-05T00:47:54.999Z,74.84
2022-09-05T00:48:54.983Z,75.70
2022-09-05T00:49:54.949Z,75.71
2022-09-05T00:50:54.931Z,75.73
2022-09-05T00:51:54.923Z,75.38
2022-09-05T00:53:06.736Z,75.09
2022-09-05T00:53:55.867Z,75.05
2022-09-05T00:54:54.859Z,75.10
2022-09-05T00:55:57.951Z,75.47
2022-09-05T00:56:54.808Z,75.71
2022-09-05T00:57:54.799Z,75.85
2022-09-05T00:58:54.781Z,75.65
2022-09-05T00:59:58.997Z,75.78
2022-09-05T01:00:54.718Z,75.75
2022-09-05T01:01:54.798Z,75.68
2022-09-05T01:02:54.749Z,75.54
2022-09-05T01:03:54.666Z,75.36
2022-09-05T01:04:54.638Z,75.34
2022-09-05T01:05:54.616Z,75.76
2022-09-05T01:06:54.607Z,76.07
2022-09-05T01:07:54.576Z,76.08
2022-09-05T01:08:54.586Z,76.22
2022-09-05T01:09:54.543Z,76.33
2022-09-05T01:10:54.527Z,76.21
2022-09-05T01:11:54.508Z,76.02
2022-09-05T01:12:54.496Z,75.88
2022-09-05T01:13:54.489Z,75.79
2022-09-05T01:14:54.475Z,75.98
2022-09-05T01:15:54.523Z,75.78
2022-09-05T01:16:54.444Z,76.04
2022-09-05T01:17:54.406Z,76.05
2022-09-05T01:18:54.400Z,75.64
2022-09-05T01:19:54.355Z,74.87
2022-09-05T01:20:54.346Z,74.58
2022-09-05T01:21:54.332Z,74.46
2022-09-05T01:22:54.545Z,74.34
2022-09-05T01:23:54.304Z,74.37
2022-09-05T01:24:54.273Z,75.14
2022-09-05T01:25:55.313Z,74.99
2022-09-05T01:26:54.254Z,75.01
2022-09-05T01:28:46.164Z,75.20
2022-09-05T01:29:18.301Z,74.86
2022-09-05T01:29:55.203Z,74.62
2022-09-05T01:30:54.228Z,74.60
2022-09-05T01:31:54.154Z,74.69
2022-09-05T01:32:55.278Z,75.06
2022-09-05T01:33:55.139Z,74.85
2022-09-05T01:34:54.102Z,75.01
2022-09-05T01:36:03.488Z,75.56
2022-09-05T01:36:55.073Z,75.75
2022-09-05T01:37:54.061Z,75.44
2022-09-05T01:39:55.132Z,75.35
2022-09-05T01:40:14.308Z,75.30
2022-09-05T01:41:18.040Z,75.57
2022-09-05T01:41:55.008Z,75.64
2022-09-05T01:42:53.970Z,75.93
2022-09-05T01:43:53.960Z,76.11
2022-09-05T01:44:53.952Z,75.53
2022-09-05T01:45:53.946Z,75.26
2022-09-05T01:46:53.889Z,75.42
2022-09-05T01:47:53.901Z,75.58
2022-09-05T01:48:53.868Z,75.76
2022-09-05T01:49:53.839Z,75.51
2022-09-05T01:50:53.823Z,75.47
2022-09-05T01:51:53.806Z,75.40
2022-09-05T01:52:58.937Z,75.59
2022-09-05T01:53:54.788Z,75.73
2022-09-05T01:54:53.756Z,75.86
2022-09-05T01:56:04.717Z,76.24
2022-09-05T01:56:54.728Z,75.93
2022-09-05T01:57:53.715Z,75.40
2022-09-05T01:58:53.720Z,75.08
2022-09-05T01:59:53.687Z,74.63
2022-09-05T02:00:53.676Z,73.32
2022-09-05T02:01:53.700Z,73.43
2022-09-05T02:02:53.726Z,74.14
2022-09-05T02:03:53.665Z,74.72
2022-09-05T02:04:53.651Z,75.40
2022-09-05T02:05:53.627Z,75.25
2022-09-05T02:06:53.615Z,75.49
2022-09-05T02:07:53.621Z,75.51
2022-09-05T02:08:53.596Z,75.44
2022-09-05T02:09:56.894Z,75.27
2022-09-05T02:10:54.586Z,75.63
2022-09-05T02:11:53.545Z,75.08
2022-09-05T02:12:56.813Z,74.76
2022-09-05T02:13:54.524Z,74.98
2022-09-05T02:14:53.493Z,74.73
2022-09-05T02:15:59.534Z,74.76
2022-09-05T02:16:54.474Z,74.62
2022-09-05T02:17:53.453Z,74.71
2022-09-05T02:18:53.464Z,74.69
2022-09-05T02:19:53.443Z,74.73
2022-09-05T02:20:53.404Z,75.22
2022-09-05T02:21:56.129Z,75.23
2022-09-05T02:22:53.372Z,75.32
2022-09-05T02:23:53.363Z,75.73
2022-09-05T02:24:53.330Z,76.21
2022-09-05T02:26:02.568Z,76.39
2022-09-05T02:26:54.292Z,76.19
2022-09-05T02:28:04.377Z,75.71
2022-09-05T02:28:54.261Z,75.78
2022-09-05T02:29:53.249Z,75.54
2022-09-05T02:31:11.575Z,75.23
2022-09-05T02:31:54.211Z,75.54
2022-09-05T02:32:53.184Z,75.93
2022-09-05T02:33:53.206Z,75.74
2022-09-05T02:34:54.150Z,76.02
2022-09-05T02:35:53.140Z,76.01
2022-09-05T02:36:53.125Z,75.83
2022-09-05T02:39:38.256Z,75.77
2022-09-05T02:42:17.185Z,76.10
2022-09-05T02:44:46.863Z,75.83
2022-09-05T02:45:07.730Z,74.94
2022-09-05T02:45:09.644Z,75.88
2022-09-05T02:45:18.371Z,76.09
2022-09-05T02:45:19.571Z,75.02
2022-09-05T02:45:21.694Z,76.11
2022-09-05T02:45:54.041Z,75.77
2022-09-05T02:46:53.011Z,75.43
2022-09-05T02:47:52.909Z,75.35
2022-09-05T02:48:52.891Z,75.57
2022-09-05T02:54:10.931Z,75.87
2022-09-05T02:57:28.064Z,76.04
2022-09-05T02:57:28.164Z,75.84
2022-09-05T02:57:29.885Z,75.66
2022-09-05T02:57:33.270Z,75.53
2022-09-05T02:57:34.887Z,75.11
2022-09-05T02:57:35.754Z,75.20
2022-09-05T02:57:40.444Z,75.49
2022-09-05T02:58:07.489Z,75.49
2022-09-05T02:59:09.629Z,75.75
2022-09-05T02:59:53.705Z,75.95
2022-09-05T03:00:52.698Z,75.74
2022-09-05T03:01:52.665Z,75.79
2022-09-05T03:02:52.700Z,74.66
2022-09-05T03:03:52.649Z,74.64
2022-09-05T03:04:52.638Z,75.29
2022-09-05T03:05:53.594Z,74.88
2022-09-05T03:06:52.599Z,75.07
2022-09-05T03:07:52.561Z,75.39
2022-09-05T03:08:52.552Z,75.15
2022-09-05T03:09:52.538Z,74.41
2022-09-05T03:10:54.340Z,74.65
2022-09-05T03:11:52.484Z,75.42
2022-09-05T03:12:52.481Z,75.12
2022-09-05T03:13:54.323Z,75.07
2022-09-05T03:14:52.425Z,75.13
2022-09-05T03:15:52.404Z,75.03
2022-09-05T03:16:52.407Z,75.07
2022-09-05T03:17:52.342Z,75.18
2022-09-05T03:18:52.346Z,75.07
2022-09-05T03:19:52.298Z,75.08
2022-09-05T03:20:52.283Z,74.63
2022-09-05T03:21:52.271Z,74.76
2022-09-05T03:22:52.232Z,74.63
2022-09-05T03:23:52.219Z,74.68
2022-09-05T03:24:55.918Z,74.06
2022-09-05T03:25:52.171Z,73.90
2022-09-05T03:26:52.150Z,74.34
2022-09-05T03:27:52.156Z,74.47
2022-09-05T03:28:52.140Z,74.76
2022-09-05T03:29:58.865Z,74.27
2022-09-05T03:30:53.151Z,73.78
2022-09-05T03:31:52.071Z,73.74
2022-09-05T03:32:52.037Z,73.64
2022-09-05T03:33:52.034Z,73.49
2022-09-05T03:34:52.008Z,73.56
2022-09-05T03:35:51.978Z,74.31
2022-09-05T03:36:51.968Z,74.40
2022-09-05T03:37:51.920Z,74.46
2022-09-05T03:38:51.917Z,74.27
2022-09-05T03:39:51.941Z,74.30
2022-09-05T03:40:51.887Z,73.99
2022-09-05T03:41:51.837Z,74.22
2022-09-05T03:42:51.818Z,74.08
2022-09-05T03:43:51.795Z,74.25
2022-09-05T03:44:51.755Z,74.84
2022-09-05T03:45:51.774Z,75.01
2022-09-05T03:46:51.706Z,74.97
2022-09-05T03:47:51.676Z,74.78
2022-09-05T03:48:52.658Z,75.03
2022-09-05T03:53:09.172Z,75.37
2022-09-05T03:57:04.558Z,75.58
2022-09-05T03:57:05.076Z,75.69
2022-09-05T03:57:13.299Z,75.50
2022-09-05T03:57:13.708Z,75.58
2022-09-05T03:57:15.203Z,74.61
2022-09-05T03:57:17.192Z,75.27
2022-09-05T03:57:20.726Z,75.24
2022-09-05T03:57:52.414Z,75.11
2022-09-05T03:58:59.087Z,74.65
2022-09-05T03:59:52.384Z,74.59
2022-09-05T04:01:00.970Z,74.80
2022-09-05T04:05:49.650Z,74.92
2022-09-05T04:08:03.341Z,74.97
2022-09-05T04:08:08.243Z,74.78
2022-09-05T04:08:17.182Z,74.83
2022-09-05T04:08:17.304Z,74.68
2022-09-05T04:08:23.965Z,74.54
2022-09-05T04:08:28.339Z,74.88
2022-09-05T04:08:52.737Z,74.62
2022-09-05T04:09:51.932Z,74.64
2022-09-05T04:10:51.200Z,74.25
2022-09-05T04:11:51.124Z,74.24
2022-09-05T04:12:51.098Z,74.56
2022-09-05T04:13:51.079Z,74.81
2022-09-05T04:14:51.053Z,74.71
2022-09-05T04:15:54.578Z,74.28
2022-09-05T04:16:51.150Z,74.57
2022-09-05T04:17:50.983Z,74.60
2022-09-05T04:18:50.957Z,75.07
2022-09-05T04:19:50.910Z,74.83
2022-09-05T04:20:50.893Z,74.36
2022-09-05T04:21:50.859Z,74.47
2022-09-05T04:22:50.838Z,74.32
2022-09-05T04:23:50.829Z,74.56
2022-09-05T04:24:50.794Z,74.59
2022-09-05T04:25:50.769Z,74.74
2022-09-05T04:26:51.784Z,74.39
2022-09-05T04:27:50.728Z,74.31
2022-09-05T04:28:53.288Z,74.31
2022-09-05T04:29:50.687Z,74.16
2022-09-05T04:30:50.676Z,74.55
2022-09-05T04:31:59.010Z,75.04
2022-09-05T04:32:54.662Z,75.06
2022-09-05T04:33:50.608Z,74.72
2022-09-05T04:34:51.095Z,74.50
2022-09-05T04:35:50.566Z,74.59
2022-09-05T04:36:50.536Z,74.93
2022-09-05T04:37:50.496Z,75.00
2022-09-05T04:38:50.488Z,74.68
2022-09-05T04:39:50.479Z,74.68
2022-09-05T04:40:50.426Z,75.15
2022-09-05T04:41:50.406Z,75.43
2022-09-05T04:42:50.394Z,75.64
2022-09-05T04:43:50.377Z,75.73
2022-09-05T04:44:50.350Z,75.30
2022-09-05T04:45:51.333Z,74.78
2022-09-05T04:46:50.301Z,74.77
2022-09-05T04:47:50.284Z,74.70
2022-09-05T04:48:50.263Z,75.11
2022-09-05T04:49:50.221Z,75.66
2022-09-05T04:50:50.209Z,75.59
2022-09-05T04:52:00.020Z,75.40
2022-09-05T04:52:51.154Z,75.31
2022-09-05T04:53:50.144Z,75.45
2022-09-05T04:54:50.133Z,75.63
2022-09-05T04:55:50.777Z,75.40
2022-09-05T04:56:50.102Z,74.61
2022-09-05T04:57:50.051Z,74.21
2022-09-05T05:01:42.070Z,73.93
2022-09-05T05:02:33.551Z,74.00
2022-09-05T05:05:58.655Z,73.85
2022-09-05T05:06:00.769Z,74.09
2022-09-05T05:06:02.873Z,74.87
2022-09-05T05:06:08.227Z,74.58
2022-09-05T05:06:10.493Z,74.83
2022-09-05T05:06:15.484Z,74.59
2022-09-05T05:06:50.989Z,75.00
2022-09-05T05:07:49.954Z,74.87
2022-09-05T05:08:49.932Z,74.62
2022-09-05T05:09:51.596Z,74.22
2022-09-05T05:12:48.240Z,74.24
2022-09-05T05:17:56.734Z,73.80
2022-09-05T05:17:56.858Z,73.90
2022-09-05T05:17:58.393Z,73.76
2022-09-05T05:18:06.169Z,74.89
2022-09-05T05:18:10.551Z,75.37
2022-09-05T05:18:13.110Z,74.32
2022-09-05T05:18:16.109Z,75.26
2022-09-05T05:18:59.970Z,75.62
2022-09-05T05:20:39.399Z,75.94
2022-09-05T05:20:50.665Z,75.48
2022-09-05T05:21:49.599Z,75.45
2022-09-05T05:22:49.578Z,75.39
2022-09-05T05:23:49.567Z,75.66
2022-09-05T05:24:49.546Z,75.74
2022-09-05T05:25:49.523Z,75.61
2022-09-05T05:26:49.496Z,75.71
2022-09-05T05:27:50.517Z,75.71
2022-09-05T05:28:49.496Z,75.41
2022-09-05T05:29:49.448Z,75.42
2022-09-05T05:30:50.564Z,74.94
2022-09-05T05:31:49.461Z,75.46
2022-09-05T05:32:49.385Z,74.76
2022-09-05T05:33:49.397Z,74.90
2022-09-05T05:34:49.347Z,74.86
2022-09-05T05:35:49.322Z,74.85
2022-09-05T05:36:49.315Z,75.02
2022-09-05T05:37:49.292Z,74.77
2022-09-05T05:38:49.275Z,74.79
2022-09-05T05:39:49.363Z,74.83
2022-09-05T05:40:50.790Z,74.79
2022-09-05T05:41:49.213Z,74.92
2022-09-05T05:42:49.203Z,75.06
2022-09-05T05:43:49.183Z,74.64
2022-09-05T05:44:49.152Z,74.94
2022-09-05T05:45:49.187Z,74.66
2022-09-05T05:46:49.112Z,74.20
2022-09-05T05:47:49.102Z,73.97
2022-09-05T05:48:57.335Z,73.69
2022-09-05T05:49:50.061Z,73.61
2022-09-05T05:50:49.042Z,73.55
2022-09-05T05:52:01.296Z,73.72
2022-09-05T05:52:50.010Z,73.93
2022-09-05T05:53:52.161Z,74.65
2022-09-05T05:54:48.950Z,74.63
2022-09-05T05:55:52.788Z,74.38
2022-09-05T05:56:48.920Z,74.08
2022-09-05T05:57:48.904Z,74.57
2022-09-05T05:58:48.869Z,74.72
2022-09-05T05:59:56.551Z,74.42
2022-09-05T06:00:51.352Z,74.72
2022-09-05T06:01:48.966Z,74.55
2022-09-05T06:03:01.875Z,74.68
2022-09-05T06:03:49.898Z,74.99
2022-09-05T06:04:48.766Z,75.53
2022-09-05T06:05:48.748Z,75.80
2022-09-05T06:06:48.738Z,76.05
2022-09-05T06:09:30.417Z,75.91
2022-09-05T06:14:49.078Z,75.73
2022-09-05T06:14:49.297Z,75.53
2022-09-05T06:14:49.381Z,75.46
2022-09-05T06:14:54.843Z,75.54
2022-09-05T06:15:01.324Z,75.97
2022-09-05T06:15:04.993Z,75.89
2022-09-05T06:15:09.169Z,75.46
2022-09-05T06:15:49.547Z,75.86
2022-09-05T06:16:48.572Z,76.16
2022-09-05T06:17:48.537Z,75.98
2022-09-05T06:18:48.496Z,76.01
2022-09-05T06:22:05.888Z,75.03
2022-09-05T06:22:06.199Z,75.94
2022-09-05T06:22:06.674Z,75.88
2022-09-05T06:22:49.415Z,74.96
2022-09-05T06:23:48.404Z,75.00
2022-09-05T06:24:48.416Z,74.94
2022-09-05T06:25:48.371Z,74.29
2022-09-05T06:26:48.335Z,74.72
2022-09-05T06:28:17.591Z,74.86
2022-09-05T06:28:49.293Z,75.12
2022-09-05T06:29:48.287Z,75.38
2022-09-05T06:30:48.253Z,75.08
2022-09-05T06:31:48.376Z,74.06
2022-09-05T06:32:58.229Z,74.58
2022-09-05T06:33:49.203Z,74.86
2022-09-05T06:34:48.202Z,75.12
2022-09-05T06:35:48.186Z,75.31
2022-09-05T06:36:48.155Z,75.25
2022-09-05T06:37:48.137Z,75.45
2022-09-05T06:38:48.113Z,75.86
2022-09-05T06:39:48.157Z,75.91
2022-09-05T06:40:48.090Z,75.91
2022-09-05T06:41:48.053Z,75.96
2022-09-05T06:42:48.041Z,76.01
2022-09-05T06:43:48.059Z,76.05
2022-09-05T06:44:48.053Z,76.04
2022-09-05T06:45:48.048Z,76.03
2022-09-05T06:47:22.050Z,75.82
2022-09-05T06:47:56.976Z,75.33
2022-09-05T06:49:28.985Z,75.47
2022-09-05T06:49:48.919Z,75.23
2022-09-05T06:51:02.031Z,75.65
2022-09-05T06:51:48.851Z,75.36
2022-09-05T06:52:48.828Z,75.12
2022-09-05T06:53:47.816Z,77.60
2022-09-05T06:54:59.450Z,76.57
2022-09-05T06:55:48.778Z,76.32
2022-09-05T06:56:47.738Z,76.24
2022-09-05T06:57:47.733Z,76.27
2022-09-05T06:58:47.708Z,76.43
2022-09-05T06:59:47.678Z,76.44
2022-09-05T07:00:47.797Z,76.40
2022-09-05T07:01:59.847Z,76.43
2022-09-05T07:02:59.145Z,76.55
2022-09-05T07:03:52.333Z,76.63
2022-09-05T07:05:24.141Z,76.74
2022-09-05T07:05:48.566Z,76.86
2022-09-05T07:07:01.649Z,76.99
2022-09-05T07:07:48.537Z,77.15
2022-09-05T07:08:47.486Z,77.45
2022-09-05T07:09:47.466Z,77.52
2022-09-05T07:10:47.456Z,77.54
2022-09-05T07:11:47.425Z,77.54
2022-09-05T07:12:47.416Z,77.69
2022-09-05T07:13:47.395Z,77.66
2022-09-05T07:14:47.369Z,77.65
2022-09-05T07:15:47.489Z,77.62
2022-09-05T07:16:47.550Z,77.74
2022-09-05T07:18:09.026Z,77.96
2022-09-05T07:18:48.284Z,78.18
2022-09-05T07:19:47.255Z,79.18
2022-09-05T07:21:15.897Z,79.26
2022-09-05T07:21:48.234Z,78.78
2022-09-05T07:22:49.282Z,78.75
2022-09-05T07:24:02.280Z,79.00
2022-09-05T07:24:54.967Z,80.15
2022-09-05T07:25:48.173Z,80.55
2022-09-05T07:26:53.958Z,80.47
2022-09-05T07:28:27.121Z,79.18
2022-09-05T07:28:48.110Z,78.83
2022-09-05T07:29:53.316Z,78.91
2022-09-05T07:30:48.083Z,79.08
2022-09-05T07:31:47.073Z,79.13
2022-09-05T07:32:47.040Z,79.21
2022-09-05T07:33:47.012Z,79.35
2022-09-05T07:34:47.007Z,79.38
2022-09-05T07:35:46.984Z,79.56
2022-09-05T07:36:46.977Z,79.74
2022-09-05T07:37:46.937Z,79.99
2022-09-05T07:38:55.251Z,80.04
2022-09-05T07:39:47.933Z,79.96
2022-09-05T07:40:46.920Z,80.92
2022-09-05T07:41:46.840Z,82.00
2022-09-05T07:42:53.773Z,81.54
2022-09-05T07:43:47.797Z,81.62
2022-09-05T07:44:46.788Z,82.17
2022-09-05T07:45:50.817Z,81.19
2022-09-05T07:46:47.750Z,80.74
2022-09-05T07:47:46.738Z,81.43
2022-09-05T07:48:46.690Z,81.21
2022-09-05T07:50:05.085Z,81.74
2022-09-05T07:55:59.239Z,82.17
2022-09-05T07:56:31.983Z,81.67
2022-09-05T07:56:49.428Z,81.81
2022-09-05T07:56:59.132Z,81.88
2022-09-05T07:57:10.879Z,81.20
2022-09-05T07:57:16.082Z,81.81
2022-09-05T07:57:22.268Z,81.42
2022-09-05T07:57:51.411Z,81.30
2022-09-05T07:58:46.487Z,80.94
2022-09-05T07:59:46.455Z,81.36
2022-09-05T08:00:46.473Z,82.13
2022-09-05T08:01:46.426Z,82.16
2022-09-05T08:02:51.458Z,82.51
2022-09-05T08:03:47.345Z,82.99
2022-09-05T08:04:46.421Z,82.48
2022-09-05T08:05:46.333Z,83.60
2022-09-05T08:07:49.321Z,83.24
2022-09-05T08:07:51.878Z,83.89
2022-09-05T08:09:20.436Z,82.04
2022-09-05T08:10:06.795Z,82.32
2022-09-05T08:11:25.021Z,82.18
2022-09-05T08:11:48.307Z,83.09
2022-09-05T08:13:23.745Z,83.04
2022-09-05T08:13:47.200Z,83.20
2022-09-05T08:14:46.296Z,82.87
2022-09-05T08:16:02.910Z,82.45
2022-09-05T08:16:47.093Z,82.76
2022-09-05T08:17:46.044Z,83.03
2022-09-05T08:18:46.072Z,82.87
2022-09-05T08:19:46.012Z,82.81
2022-09-05T08:20:46.000Z,83.12
2022-09-05T08:21:45.971Z,83.93
2022-09-05T08:22:52.236Z,83.27
2022-09-05T08:23:46.931Z,83.38
2022-09-05T08:24:45.923Z,83.69
2022-09-05T08:25:57.638Z,84.41
2022-09-05T08:26:47.455Z,84.66
2022-09-05T08:27:45.861Z,85.11
2022-09-05T08:28:45.821Z,83.96
2022-09-05T08:29:45.826Z,84.36
2022-09-05T08:30:45.790Z,85.27
2022-09-05T08:31:45.801Z,85.49
2022-09-05T08:32:45.755Z,85.21
2022-09-05T08:33:45.744Z,85.59
2022-09-05T08:34:45.924Z,85.99
2022-09-05T08:35:45.672Z,84.98
2022-09-05T08:36:45.669Z,85.56
2022-09-05T08:37:45.609Z,85.84
2022-09-05T08:38:45.593Z,85.97
2022-09-05T08:39:45.595Z,86.00
2022-09-05T08:40:45.570Z,85.92
2022-09-05T08:41:50.299Z,85.89
2022-09-05T08:42:49.358Z,85.00
2022-09-05T08:46:37.109Z,84.66
2022-09-05T08:46:41.437Z,85.04
2022-09-05T08:46:42.800Z,85.46
2022-09-05T08:46:49.654Z,85.46
2022-09-05T08:47:46.187Z,85.95
2022-09-05T08:48:45.363Z,85.65
2022-09-05T08:49:46.367Z,85.38
2022-09-05T08:50:45.348Z,85.67
2022-09-05T08:51:54.364Z,86.15
2022-09-05T08:52:46.279Z,86.19
2022-09-05T08:53:46.129Z,85.83
2022-09-05T08:54:45.224Z,85.64
2022-09-05T08:55:45.203Z,84.75
2022-09-05T08:56:45.173Z,85.40
2022-09-05T08:57:45.136Z,86.02
2022-09-05T08:58:45.114Z,86.33
2022-09-05T09:00:19.380Z,86.33
2022-09-05T09:00:55.004Z,86.36
2022-09-05T09:02:13.819Z,86.34
2022-09-05T09:02:48.364Z,86.28
2022-09-05T09:03:45.129Z,86.49
2022-09-05T09:05:01.524Z,86.28
2022-09-05T09:06:12.138Z,86.22
2022-09-05T09:06:45.933Z,86.28
2022-09-05T09:07:51.001Z,86.46
2022-09-05T09:08:45.892Z,85.76
2022-09-05T09:09:44.873Z,86.15
2022-09-05T09:10:44.862Z,86.43
2022-09-05T09:11:44.852Z,86.60
2022-09-05T09:12:44.823Z,86.24
2022-09-05T09:13:44.781Z,86.31
2022-09-05T09:14:44.761Z,86.46
2022-09-05T09:15:44.813Z,86.66
2022-09-05T09:16:44.712Z,86.64
2022-09-05T09:17:44.690Z,86.72
2022-09-05T09:18:44.682Z,85.82
2022-09-05T09:19:44.650Z,86.49
2022-09-05T09:20:45.331Z,86.12
2022-09-05T09:21:44.617Z,85.35
2022-09-05T09:22:44.580Z,86.08
2022-09-05T09:23:44.650Z,86.42
2022-09-05T09:24:44.541Z,85.73
2022-09-05T09:25:45.529Z,85.99
2022-09-05T09:26:44.497Z,86.18
2022-09-05T09:28:48.431Z,86.04
2022-09-05T09:28:50.277Z,86.41
2022-09-05T09:29:45.440Z,86.13
2022-09-05T09:30:44.423Z,85.43
2022-09-05T09:31:44.481Z,85.92
2022-09-05T09:32:44.367Z,85.98
2022-09-05T09:33:44.349Z,86.35
2022-09-05T09:34:47.275Z,86.40
2022-09-05T09:35:44.319Z,86.51
2022-09-05T09:36:44.289Z,86.57
2022-09-05T09:37:50.896Z,86.72
2022-09-05T09:38:45.236Z,86.73
2022-09-05T09:39:44.311Z,86.68
2022-09-05T09:40:53.601Z,86.65
2022-09-05T09:41:45.183Z,86.23
2022-09-05T09:42:44.278Z,86.46
2022-09-05T09:43:44.228Z,86.63
2022-09-05T09:44:45.135Z,86.74
2022-09-05T09:45:44.115Z,86.67
2022-09-05T09:46:44.152Z,86.44
2022-09-05T09:47:44.066Z,86.57
2022-09-05T09:48:44.044Z,85.79
2022-09-05T09:49:44.040Z,85.99
2022-09-05T09:50:49.154Z,86.70
2022-09-05T09:51:44.973Z,86.66
2022-09-05T09:52:43.953Z,86.82
2022-09-05T09:53:43.952Z,86.75
2022-09-05T09:54:43.901Z,85.86
2022-09-05T09:55:43.895Z,85.71
2022-09-05T09:56:43.862Z,85.81
2022-09-05T09:57:43.833Z,86.00
2022-09-05T09:58:43.804Z,86.41
2022-09-05T09:59:54.460Z,85.90
2022-09-05T10:00:44.772Z,86.27
2022-09-05T10:01:43.751Z,86.60
2022-09-05T10:03:58.136Z,86.62
2022-09-05T10:10:35.840Z,86.59
2022-09-05T10:10:39.690Z,86.65
2022-09-05T10:10:40.020Z,86.21
2022-09-05T10:10:45.153Z,86.74
2022-09-05T10:10:45.154Z,86.60
2022-09-05T10:10:45.167Z,86.68
2022-09-05T10:10:57.644Z,86.87
2022-09-05T10:11:25.900Z,86.80
2022-09-05T10:12:00.389Z,86.88
2022-09-05T10:12:44.492Z,86.95
2022-09-05T10:13:43.469Z,86.98
2022-09-05T10:14:50.757Z,86.54
2022-09-05T10:15:44.448Z,86.64
2022-09-05T10:16:43.426Z,86.77
2022-09-05T10:17:43.350Z,86.93
2022-09-05T10:18:43.336Z,87.01
2022-09-05T10:20:44.289Z,86.91
2022-09-05T10:21:44.241Z,86.96
2022-09-05T10:22:43.221Z,86.46
2022-09-05T10:23:44.261Z,86.77
2022-09-05T10:24:43.170Z,86.66
2022-09-05T10:25:43.140Z,86.76
2022-09-05T10:26:43.132Z,86.65
2022-09-05T10:27:44.653Z,86.69
2022-09-05T10:28:43.043Z,86.31
2022-09-05T10:29:43.043Z,86.40
2022-09-05T10:32:59.437Z,86.37
2022-09-05T10:35:07.670Z,86.70
2022-09-05T10:35:07.918Z,86.49
2022-09-05T10:35:13.751Z,86.66
2022-09-05T10:35:17.697Z,86.59
2022-09-05T10:35:43.894Z,86.43
2022-09-05T10:36:42.897Z,86.43
2022-09-05T10:37:42.828Z,86.49
2022-09-05T10:38:43.026Z,86.62
2022-09-05T10:39:42.774Z,86.60
2022-09-05T10:41:11.239Z,86.66
2022-09-05T10:41:43.723Z,86.70
2022-09-05T10:42:59.632Z,86.52
2022-09-05T10:43:43.662Z,86.40
2022-09-05T10:44:42.624Z,86.28
2022-09-05T10:45:42.629Z,86.45
2022-09-05T10:46:51.543Z,86.61
2022-09-05T10:47:43.533Z,86.89
2022-09-05T10:48:42.579Z,86.79
2022-09-05T10:49:42.482Z,86.64
2022-09-05T10:50:42.458Z,86.85
2022-09-05T10:51:42.451Z,86.45
2022-09-05T10:52:42.403Z,86.29
2022-09-05T10:53:42.380Z,86.66
2022-09-05T10:54:42.349Z,86.86
2022-09-05T10:55:42.328Z,86.74
2022-09-05T10:56:42.322Z,86.40
2022-09-05T10:57:42.250Z,86.50
2022-09-05T11:00:56.442Z,86.81
2022-09-05T11:02:18.800Z,86.74
2022-09-05T11:02:18.937Z,86.33
2022-09-05T11:02:26.641Z,86.36
2022-09-05T11:02:47.263Z,86.26
2022-09-05T11:03:43.144Z,86.25
2022-09-05T11:04:46.656Z,86.28
2022-09-05T11:05:43.082Z,86.24
2022-09-05T11:06:42.019Z,86.25
2022-09-05T11:07:41.978Z,86.25
2022-09-05T11:08:42.004Z,86.51
2022-09-05T11:09:41.939Z,86.12
2022-09-05T11:10:41.969Z,86.35
2022-09-05T11:11:43.395Z,86.35
2022-09-05T11:12:41.934Z,86.30
2022-09-05T11:13:41.881Z,86.12
2022-09-05T11:14:41.776Z,86.38
2022-09-05T11:15:45.905Z,86.55
2022-09-05T11:16:42.780Z,86.43
2022-09-05T11:17:41.686Z,86.08
2022-09-05T11:18:56.458Z,86.10
2022-09-05T11:19:42.645Z,86.06
2022-09-05T11:20:41.619Z,86.15
2022-09-05T11:21:41.597Z,86.01
2022-09-05T11:22:41.563Z,85.75
2022-09-05T11:23:41.535Z,85.60
2022-09-05T11:24:42.504Z,85.90
2022-09-05T11:25:41.489Z,84.97
2022-09-05T11:26:41.474Z,84.40
2022-09-05T11:27:41.443Z,84.11
2022-09-05T11:28:59.810Z,84.89
2022-09-05T11:29:42.387Z,85.09
2022-09-05T11:30:41.437Z,85.14
2022-09-05T11:32:08.485Z,85.13
2022-09-05T11:39:47.691Z,85.14
2022-09-05T11:39:48.515Z,85.46
2022-09-05T11:39:48.916Z,84.94
2022-09-05T11:39:50.565Z,85.73
2022-09-05T11:39:59.171Z,83.76
2022-09-05T11:39:59.807Z,83.85
2022-09-05T11:40:04.607Z,84.77
2022-09-05T11:40:06.901Z,84.41
2022-09-05T11:40:58.019Z,84.72
2022-09-05T11:41:42.149Z,85.39
2022-09-05T11:42:41.029Z,84.99
2022-09-05T11:43:40.961Z,84.94
2022-09-05T11:44:40.939Z,85.15
2022-09-05T11:45:40.913Z,84.45
2022-09-05T11:46:40.917Z,83.97
2022-09-05T11:47:44.436Z,84.88
2022-09-05T11:48:47.902Z,84.85
2022-09-05T11:49:41.789Z,85.21
2022-09-05T11:50:40.767Z,85.37
2022-09-05T11:51:40.750Z,84.93
2022-09-05T11:52:40.729Z,84.90
2022-09-05T11:53:40.693Z,84.97
2022-09-05T11:54:40.650Z,84.45
2022-09-05T11:55:40.638Z,84.70
2022-09-05T11:56:45.640Z,85.22
2022-09-05T11:57:41.578Z,84.74
2022-09-05T11:58:45.198Z,85.04
2022-09-05T11:59:44.953Z,85.11
2022-09-05T12:00:41.487Z,85.29
2022-09-05T12:01:42.419Z,85.41
2022-09-05T12:02:40.490Z,85.29
2022-09-05T12:03:59.204Z,84.81
2022-09-05T12:04:41.476Z,84.74
2022-09-05T12:05:49.120Z,84.76
2022-09-05T12:07:41.348Z,84.89
2022-09-05T12:08:40.286Z,84.78
2022-09-05T12:09:40.253Z,84.65
2022-09-05T12:10:47.549Z,84.51
2022-09-05T12:11:43.342Z,84.98
2022-09-05T12:12:41.891Z,84.95
2022-09-05T12:13:40.148Z,84.53
2022-09-05T12:14:46.501Z,84.69
2022-09-05T12:15:42.651Z,84.27
2022-09-05T12:16:41.077Z,84.61
2022-09-05T12:17:40.055Z,85.11
2022-09-05T12:18:40.014Z,83.87
2022-09-05T12:19:39.994Z,79.60
2022-09-05T12:20:43.586Z,77.90
2022-09-05T12:21:39.925Z,80.52
2022-09-05T12:22:39.896Z,81.00
2022-09-05T12:24:07.819Z,81.70
2022-09-05T12:25:16.837Z,81.64
2022-09-05T12:27:40.301Z,80.74
2022-09-05T12:27:40.933Z,81.52
2022-09-05T12:27:46.143Z,80.20
2022-09-05T12:29:34.001Z,80.64
2022-09-05T12:29:48.996Z,81.41
2022-09-05T12:31:07.064Z,80.77
2022-09-05T12:32:34.469Z,80.67
2022-09-05T12:35:48.603Z,80.70
2022-09-05T12:36:04.058Z,80.78
2022-09-05T12:36:10.454Z,80.68
2022-09-05T12:36:11.324Z,80.43
2022-09-05T12:40:00.967Z,80.33
2022-09-05T12:40:23.694Z,81.07
2022-09-05T12:40:55.920Z,80.72
2022-09-05T12:41:35.536Z,80.86
2022-09-05T12:41:35.804Z,81.21
2022-09-05T12:41:40.967Z,84.90
2022-09-05T12:42:14.756Z,80.72
2022-09-05T12:43:01.760Z,80.54
2022-09-05T12:44:40.994Z,80.83
2022-09-05T12:44:44.928Z,80.98
2022-09-05T12:45:40.239Z,80.93
2022-09-05T12:46:39.078Z,80.75
2022-09-05T12:47:39.056Z,80.81
2022-09-05T12:48:39.838Z,80.51
2022-09-05T12:49:38.978Z,80.72
2022-09-05T12:50:39.965Z,81.10
2022-09-05T12:51:46.039Z,80.79
2022-09-05T12:52:39.897Z,80.96
2022-09-05T12:53:38.869Z,80.03